createdAt,value
2022-09-28T00:00:31.705Z,1000.0315234279999
2022-09-28T00:01:31.829Z,1000.0315234279999
2022-09-28T00:02:31.929Z,1000.133114792
2022-09-28T00:03:31.755Z,999.9299320639999
2022-09-28T00:04:31.703Z,999.8283407
2022-09-28T00:05:31.752Z,999.9299320639999
2022-09-28T00:06:31.707Z,1000.133114792
2022-09-28T00:07:31.749Z,1000.133114792
2022-09-28T00:08:31.717Z,1000.133114792
2022-09-28T00:09:31.846Z,1000.0315234279999
2022-09-28T00:10:31.720Z,1000.0315234279999
2022-09-28T00:11:31.757Z,1000.0315234279999
2022-09-28T00:12:31.784Z,1000.0315234279999
2022-09-28T00:13:31.754Z,1000.0315234279999
2022-09-28T00:14:31.802Z,1000.0315234279999
2022-09-28T00:15:31.704Z,999.9299320639999
2022-09-28T00:16:31.815Z,999.8283407
2022-09-28T00:17:31.769Z,1000.133114792
2022-09-28T00:18:31.715Z,1000.2347061559999
2022-09-28T00:19:31.715Z,1000.0315234279999
2022-09-28T00:20:31.720Z,1000.133114792
2022-09-28T00:21:31.807Z,1000.0315234279999
2022-09-28T00:22:31.730Z,999.8283407
2022-09-28T00:23:31.758Z,999.9299320639999
2022-09-28T00:24:31.716Z,1000.0315234279999
2022-09-28T00:25:31.750Z,999.7267493359999
2022-09-28T00:26:31.755Z,1000.133114792
2022-09-28T00:27:31.726Z,1000.0315234279999
2022-09-28T00:28:31.742Z,1000.0315234279999
2022-09-28T00:29:31.792Z,1000.0315234279999
2022-09-28T00:30:31.751Z,999.9299320639999
2022-09-28T00:31:31.877Z,1000.133114792
2022-09-28T00:32:31.703Z,1000.2347061559999
2022-09-28T00:33:31.678Z,1000.133114792
2022-09-28T00:34:31.746Z,1000.0315234279999
2022-09-28T00:35:31.731Z,999.9299320639999
2022-09-28T00:36:31.752Z,999.9299320639999
2022-09-28T00:37:31.752Z,1000.133114792
2022-09-28T00:38:31.742Z,1000.0315234279999
2022-09-28T00:39:31.773Z,1000.0315234279999
2022-09-28T00:40:31.842Z,999.8283407
2022-09-28T00:41:31.760Z,1000.0315234279999
2022-09-28T00:42:31.746Z,1000.133114792
2022-09-28T00:43:31.703Z,1000.133114792
2022-09-28T00:44:31.751Z,1000.0315234279999
2022-09-28T00:45:31.855Z,999.9299320639999
2022-09-28T00:46:31.751Z,1000.0315234279999
2022-09-28T00:47:31.697Z,999.9299320639999
2022-09-28T00:48:31.732Z,999.7267493359999
2022-09-28T00:49:31.748Z,999.7267493359999
2022-09-28T00:50:31.750Z,1000.0315234279999
2022-09-28T00:51:31.706Z,1000.0315234279999
2022-09-28T00:52:31.733Z,1000.0315234279999
2022-09-28T00:53:31.758Z,1000.0315234279999
2022-09-28T00:54:31.784Z,999.8283407
2022-09-28T00:55:31.714Z,1000.133114792
2022-09-28T00:56:31.745Z,1000.0315234279999
2022-09-28T00:57:31.717Z,999.7267493359999
2022-09-28T00:58:31.738Z,999.9299320639999
2022-09-28T00:59:31.729Z,999.9299320639999
2022-09-28T01:00:31.805Z,999.8283407
2022-09-28T01:01:31.741Z,1000.0315234279999
2022-09-28T01:02:31.817Z,999.8283407
2022-09-28T01:03:31.706Z,1000.0315234279999
2022-09-28T01:04:31.731Z,999.9299320639999
2022-09-28T01:05:31.904Z,999.8283407
2022-09-28T01:06:31.722Z,999.8283407
2022-09-28T01:07:31.696Z,1000.0315234279999
2022-09-28T01:08:31.713Z,999.8283407
2022-09-28T01:09:31.712Z,999.9299320639999
2022-09-28T01:10:31.803Z,999.9299320639999
2022-09-28T01:11:31.709Z,1000.0315234279999
2022-09-28T01:12:31.731Z,1000.0315234279999
2022-09-28T01:13:31.716Z,999.8283407
2022-09-28T01:14:31.735Z,999.8283407
2022-09-28T01:15:31.707Z,1000.0315234279999
2022-09-28T01:16:31.849Z,999.8283407
2022-09-28T01:17:31.818Z,999.9299320639999
2022-09-28T01:18:31.718Z,999.8283407
2022-09-28T01:19:31.716Z,999.8283407
2022-09-28T01:20:31.732Z,999.8283407
2022-09-28T01:21:31.736Z,999.9299320639999
2022-09-28T01:22:31.731Z,1000.2347061559999
2022-09-28T01:23:31.681Z,999.9299320639999
2022-09-28T01:24:31.736Z,999.8283407
2022-09-28T01:25:31.719Z,999.9299320639999
2022-09-28T01:26:31.710Z,1000.0315234279999
2022-09-28T01:27:31.732Z,999.9299320639999
2022-09-28T01:28:31.742Z,999.6251579719999
2022-09-28T01:29:31.734Z,999.9299320639999
2022-09-28T01:30:31.753Z,999.9299320639999
2022-09-28T01:31:31.774Z,999.9299320639999
2022-09-28T01:32:31.720Z,999.8283407
2022-09-28T01:33:31.720Z,1000.0315234279999
2022-09-28T01:34:31.725Z,999.7267493359999
2022-09-28T01:35:31.790Z,1000.0315234279999
2022-09-28T01:36:31.717Z,999.9299320639999
2022-09-28T01:37:31.733Z,999.7267493359999
2022-09-28T01:38:31.805Z,1000.0315234279999
2022-09-28T01:39:31.719Z,999.9299320639999
2022-09-28T01:40:31.956Z,999.9299320639999
2022-09-28T01:41:31.847Z,1000.0315234279999
2022-09-28T01:42:31.849Z,999.9299320639999
2022-09-28T01:43:31.830Z,999.9299320639999
2022-09-28T01:44:31.853Z,1000.133114792
2022-09-28T01:45:31.903Z,999.9299320639999
2022-09-28T01:46:31.848Z,999.9299320639999
2022-09-28T01:47:31.864Z,999.8283407
2022-09-28T01:48:31.829Z,999.9299320639999
2022-09-28T01:49:31.795Z,1000.133114792
2022-09-28T01:50:31.729Z,1000.0315234279999
2022-09-28T01:51:31.748Z,1000.133114792
2022-09-28T01:52:31.702Z,1000.0315234279999
2022-09-28T01:53:31.751Z,1000.133114792
2022-09-28T01:54:31.726Z,999.9299320639999
2022-09-28T01:55:31.766Z,1000.0315234279999
2022-09-28T01:56:31.706Z,999.9299320639999
2022-09-28T01:57:31.730Z,1000.0315234279999
2022-09-28T01:58:31.719Z,1000.133114792
2022-09-28T01:59:31.725Z,999.9299320639999
2022-09-28T02:00:31.771Z,999.9299320639999
2022-09-28T02:01:31.748Z,1000.0315234279999
2022-09-28T02:02:31.800Z,1000.0315234279999
2022-09-28T02:03:31.766Z,999.7267493359999
2022-09-28T02:04:31.722Z,1000.0315234279999
2022-09-28T02:05:31.733Z,999.9299320639999
2022-09-28T02:06:31.734Z,999.9299320639999
2022-09-28T02:07:31.735Z,999.9299320639999
2022-09-28T02:08:31.762Z,999.9299320639999
2022-09-28T02:09:33.730Z,999.8283407
2022-09-28T02:10:31.742Z,1000.0315234279999
2022-09-28T02:11:31.711Z,999.8283407
2022-09-28T02:12:31.868Z,999.9299320639999
2022-09-28T02:13:31.766Z,999.7267493359999
2022-09-28T02:14:31.725Z,999.9299320639999
2022-09-28T02:15:31.709Z,999.9299320639999
2022-09-28T02:16:31.764Z,999.9299320639999
2022-09-28T02:17:31.735Z,999.9299320639999
2022-09-28T02:18:31.722Z,1000.0315234279999
2022-09-28T02:19:31.701Z,1000.133114792
2022-09-28T02:20:31.701Z,1000.133114792
2022-09-28T02:21:31.710Z,1000.0315234279999
2022-09-28T02:22:31.707Z,999.8283407
2022-09-28T02:23:31.752Z,1000.0315234279999
2022-09-28T02:24:31.693Z,999.7267493359999
2022-09-28T02:25:31.735Z,999.8283407
2022-09-28T02:26:31.731Z,999.8283407
2022-09-28T02:27:31.698Z,999.8283407
2022-09-28T02:28:31.704Z,1000.0315234279999
2022-09-28T02:29:31.744Z,999.6251579719999
2022-09-28T02:30:31.698Z,1000.0315234279999
2022-09-28T02:31:31.786Z,1000.133114792
2022-09-28T02:32:31.710Z,999.7267493359999
2022-09-28T02:33:31.660Z,999.9299320639999
2022-09-28T02:34:31.726Z,999.9299320639999
2022-09-28T02:35:31.693Z,1000.0315234279999
2022-09-28T02:36:31.728Z,999.9299320639999
2022-09-28T02:37:31.749Z,999.9299320639999
2022-09-28T02:38:31.696Z,999.8283407
2022-09-28T02:39:31.665Z,999.9299320639999
2022-09-28T02:40:31.811Z,1000.0315234279999
2022-09-28T02:41:31.732Z,999.8283407
2022-09-28T02:42:31.713Z,999.9299320639999
2022-09-28T02:43:31.673Z,999.9299320639999
2022-09-28T02:44:31.706Z,1000.0315234279999
2022-09-28T02:45:31.716Z,999.9299320639999
2022-09-28T02:46:31.713Z,999.9299320639999
2022-09-28T02:47:31.720Z,999.9299320639999
2022-09-28T02:48:44.057Z,999.9299320639999
2022-09-28T02:49:31.893Z,999.9299320639999
2022-09-28T02:50:31.700Z,1000.0315234279999
2022-09-28T02:51:31.715Z,999.8283407
2022-09-28T02:52:31.723Z,999.8283407
2022-09-28T02:53:31.704Z,999.9299320639999
2022-09-28T02:54:31.698Z,999.8283407
2022-09-28T02:55:31.728Z,999.9299320639999
2022-09-28T02:56:31.704Z,999.8283407
2022-09-28T02:57:31.690Z,999.8283407
2022-09-28T02:58:31.742Z,999.9299320639999
2022-09-28T02:59:31.670Z,999.9299320639999
2022-09-28T03:00:31.864Z,999.8283407
2022-09-28T03:01:31.710Z,1000.0315234279999
2022-09-28T03:02:31.794Z,999.8283407
2022-09-28T03:03:31.832Z,1000.133114792
2022-09-28T03:04:31.718Z,999.9299320639999
2022-09-28T03:05:31.712Z,1000.0315234279999
2022-09-28T03:06:31.737Z,1000.133114792
2022-09-28T03:07:31.713Z,999.9299320639999
2022-09-28T03:08:31.826Z,999.9299320639999
2022-09-28T03:09:31.696Z,999.9299320639999
2022-09-28T03:10:31.839Z,999.9299320639999
2022-09-28T03:11:31.794Z,999.8283407
2022-09-28T03:12:31.855Z,1000.133114792
2022-09-28T03:13:31.889Z,1000.0315234279999
2022-09-28T03:14:31.895Z,999.9299320639999
2022-09-28T03:15:31.882Z,999.9299320639999
2022-09-28T03:16:31.756Z,999.9299320639999
2022-09-28T03:17:31.716Z,999.8283407
2022-09-28T03:18:31.814Z,999.9299320639999
2022-09-28T03:19:31.674Z,999.9299320639999
2022-09-28T03:20:31.836Z,999.8283407
2022-09-28T03:21:31.860Z,999.7267493359999
2022-09-28T03:22:31.889Z,999.6251579719999
2022-09-28T03:23:31.952Z,999.6251579719999
2022-09-28T03:24:31.824Z,1000.0315234279999
2022-09-28T03:25:31.736Z,1000.0315234279999
2022-09-28T03:26:31.817Z,1000.0315234279999
2022-09-28T03:27:31.858Z,999.6251579719999
2022-09-28T03:28:31.841Z,999.9299320639999
2022-09-28T03:29:31.709Z,999.6251579719999
2022-09-28T03:30:31.801Z,999.8283407
2022-09-28T03:31:31.801Z,999.8283407
2022-09-28T03:32:31.792Z,999.7267493359999
2022-09-28T03:33:31.747Z,1000.0315234279999
2022-09-28T03:34:31.708Z,999.8283407
2022-09-28T03:35:31.716Z,999.8283407
2022-09-28T03:36:31.695Z,999.9299320639999
2022-09-28T03:37:31.708Z,1000.133114792
2022-09-28T03:38:31.677Z,999.7267493359999
2022-09-28T03:39:31.703Z,1000.0315234279999
2022-09-28T03:40:31.867Z,1000.0315234279999
2022-09-28T03:41:31.845Z,999.7267493359999
2022-09-28T03:42:31.824Z,1000.0315234279999
2022-09-28T03:43:31.793Z,999.9299320639999
2022-09-28T03:44:31.718Z,999.8283407
2022-09-28T03:45:31.738Z,1000.0315234279999
2022-09-28T03:46:31.730Z,999.8283407
2022-09-28T03:47:31.891Z,999.9299320639999
2022-09-28T03:48:32.853Z,999.7267493359999
2022-09-28T03:49:31.688Z,1000.0315234279999
2022-09-28T03:50:31.726Z,999.8283407
2022-09-28T03:51:31.703Z,999.8283407
2022-09-28T03:52:31.714Z,999.9299320639999
2022-09-28T03:53:31.704Z,999.7267493359999
2022-09-28T03:54:31.686Z,1000.0315234279999
2022-09-28T03:55:31.710Z,1000.0315234279999
2022-09-28T03:56:31.701Z,999.9299320639999
2022-09-28T03:57:31.668Z,1000.0315234279999
2022-09-28T03:58:31.710Z,999.9299320639999
2022-09-28T03:59:31.702Z,999.8283407
2022-09-28T04:00:31.700Z,1000.0315234279999
2022-09-28T04:01:31.784Z,999.9299320639999
2022-09-28T04:02:31.870Z,999.9299320639999
2022-09-28T04:03:31.684Z,999.9299320639999
2022-09-28T04:04:31.709Z,999.7267493359999
2022-09-28T04:05:31.692Z,999.8283407
2022-09-28T04:06:31.716Z,999.9299320639999
2022-09-28T04:07:31.708Z,999.9299320639999
2022-09-28T04:08:31.725Z,1000.133114792
2022-09-28T04:09:31.689Z,1000.0315234279999
2022-09-28T04:10:31.706Z,1000.2347061559999
2022-09-28T04:11:42.962Z,999.8283407
2022-09-28T04:12:31.771Z,999.8283407
2022-09-28T04:13:31.685Z,999.7267493359999
2022-09-28T04:14:31.712Z,999.8283407
2022-09-28T04:15:31.698Z,999.8283407
2022-09-28T04:16:31.800Z,999.8283407
2022-09-28T04:17:31.702Z,1000.0315234279999
2022-09-28T04:18:31.728Z,1000.0315234279999
2022-09-28T04:19:31.697Z,1000.133114792
2022-09-28T04:20:31.776Z,1000.0315234279999
2022-09-28T04:21:31.894Z,999.9299320639999
2022-09-28T04:22:31.709Z,1000.0315234279999
2022-09-28T04:23:31.726Z,999.8283407
2022-09-28T04:24:31.689Z,1000.133114792
2022-09-28T04:25:31.691Z,1000.133114792
2022-09-28T04:26:31.680Z,999.9299320639999
2022-09-28T04:27:31.704Z,999.9299320639999
2022-09-28T04:28:31.708Z,1000.2347061559999
2022-09-28T04:29:31.704Z,1000.133114792
2022-09-28T04:30:31.695Z,1000.0315234279999
2022-09-28T04:31:31.860Z,1000.2347061559999
2022-09-28T04:32:31.708Z,1000.133114792
2022-09-28T04:33:31.656Z,1000.0315234279999
2022-09-28T04:34:35.729Z,1000.133114792
2022-09-28T04:35:31.704Z,1000.133114792
2022-09-28T04:36:31.697Z,999.9299320639999
2022-09-28T04:37:31.698Z,1000.2347061559999
2022-09-28T04:38:51.961Z,1000.133114792
2022-09-28T04:39:31.764Z,999.8283407
2022-09-28T04:40:31.739Z,1000.0315234279999
2022-09-28T04:41:31.693Z,999.9299320639999
2022-09-28T04:42:31.707Z,1000.2347061559999
2022-09-28T04:43:31.699Z,1000.0315234279999
2022-09-28T04:44:31.724Z,999.9299320639999
2022-09-28T04:45:31.781Z,999.9299320639999
2022-09-28T04:46:31.834Z,999.9299320639999
2022-09-28T04:47:31.734Z,1000.0315234279999
2022-09-28T04:48:31.710Z,999.9299320639999
2022-09-28T04:49:31.695Z,999.9299320639999
2022-09-28T04:50:31.682Z,999.8283407
2022-09-28T04:51:31.683Z,1000.0315234279999
2022-09-28T04:52:31.691Z,999.9299320639999
2022-09-28T04:53:31.675Z,999.9299320639999
2022-09-28T04:54:32.022Z,999.9299320639999
2022-09-28T04:55:31.722Z,999.9299320639999
2022-09-28T04:56:31.735Z,999.7267493359999
2022-09-28T04:57:31.679Z,1000.133114792
2022-09-28T04:58:31.696Z,999.8283407
2022-09-28T04:59:31.713Z,1000.0315234279999
2022-09-28T05:00:31.717Z,999.8283407
2022-09-28T05:01:31.755Z,999.9299320639999
2022-09-28T05:02:31.800Z,1000.133114792
2022-09-28T05:03:31.723Z,1000.0315234279999
2022-09-28T05:04:31.713Z,999.8283407
2022-09-28T05:05:31.700Z,999.9299320639999
2022-09-28T05:06:31.726Z,999.8283407
2022-09-28T05:07:31.731Z,999.9299320639999
2022-09-28T05:08:31.821Z,999.9299320639999
2022-09-28T05:09:35.003Z,1000.133114792
2022-09-28T05:10:31.711Z,999.9299320639999
2022-09-28T05:11:31.703Z,1000.133114792
2022-09-28T05:12:31.729Z,1000.0315234279999
2022-09-28T05:13:31.680Z,999.8283407
2022-09-28T05:14:31.707Z,1000.2347061559999
2022-09-28T05:15:31.699Z,1000.133114792
2022-09-28T05:16:31.768Z,1000.3362975199999
2022-09-28T05:17:31.682Z,1000.0315234279999
2022-09-28T05:18:31.714Z,999.9299320639999
2022-09-28T05:19:31.704Z,1000.133114792
2022-09-28T05:20:31.722Z,1000.133114792
2022-09-28T05:21:31.697Z,1000.133114792
2022-09-28T05:22:31.828Z,1000.2347061559999
2022-09-28T05:23:34.274Z,1000.0315234279999
2022-09-28T05:24:31.686Z,1000.0315234279999
2022-09-28T05:25:31.668Z,999.8283407
2022-09-28T05:26:31.729Z,1000.133114792
2022-09-28T05:27:31.715Z,1000.133114792
2022-09-28T05:28:31.708Z,1000.0315234279999
2022-09-28T05:29:32.566Z,1000.0315234279999
2022-09-28T05:30:31.770Z,1000.133114792
2022-09-28T05:31:31.785Z,1000.2347061559999
2022-09-28T05:32:31.816Z,1000.133114792
2022-09-28T05:33:31.713Z,1000.2347061559999
2022-09-28T05:34:31.723Z,1000.133114792
2022-09-28T05:35:31.703Z,1000.2347061559999
2022-09-28T05:36:31.705Z,1000.133114792
2022-09-28T05:37:31.682Z,1000.133114792
2022-09-28T05:38:31.759Z,1000.2347061559999
2022-09-28T05:39:31.765Z,1000.2347061559999
2022-09-28T05:40:31.778Z,1000.2347061559999
2022-09-28T05:41:31.675Z,1000.2347061559999
2022-09-28T05:42:31.701Z,1000.133114792
2022-09-28T05:43:31.697Z,1000.133114792
2022-09-28T05:44:31.670Z,1000.0315234279999
2022-09-28T05:45:31.777Z,1000.0315234279999
2022-09-28T05:46:31.896Z,1000.2347061559999
2022-09-28T05:47:31.678Z,1000.2347061559999
2022-09-28T05:48:31.730Z,1000.133114792
2022-09-28T05:49:31.709Z,1000.133114792
2022-09-28T05:50:31.691Z,1000.3362975199999
2022-09-28T05:51:31.722Z,1000.0315234279999
2022-09-28T05:52:31.681Z,1000.133114792
2022-09-28T05:53:31.658Z,1000.3362975199999
2022-09-28T05:54:31.726Z,1000.2347061559999
2022-09-28T05:55:31.778Z,1000.133114792
2022-09-28T05:56:31.716Z,1000.437888884
2022-09-28T05:57:31.697Z,1000.2347061559999
2022-09-28T05:58:31.683Z,1000.3362975199999
2022-09-28T05:59:31.710Z,1000.3362975199999
2022-09-28T06:00:31.708Z,1000.2347061559999
2022-09-28T06:01:31.702Z,1000.437888884
2022-09-28T06:02:31.792Z,1000.133114792
2022-09-28T06:03:31.805Z,1000.3362975199999
2022-09-28T06:04:31.722Z,1000.437888884
2022-09-28T06:05:31.695Z,1000.133114792
2022-09-28T06:06:31.683Z,1000.0315234279999
2022-09-28T06:07:31.691Z,999.6251579719999
2022-09-28T06:08:31.687Z,999.6251579719999
2022-09-28T06:09:31.690Z,999.523566608
2022-09-28T06:10:31.672Z,999.523566608
2022-09-28T06:11:31.702Z,999.6251579719999
2022-09-28T06:12:31.731Z,999.523566608
2022-09-28T06:13:31.711Z,999.7267493359999
2022-09-28T06:14:31.742Z,999.421975244
2022-09-28T06:15:31.692Z,999.8283407
2022-09-28T06:16:31.743Z,999.7267493359999
2022-09-28T06:17:31.695Z,999.6251579719999
2022-09-28T06:18:31.695Z,999.7267493359999
2022-09-28T06:19:31.717Z,999.7267493359999
2022-09-28T06:20:31.738Z,999.7267493359999
2022-09-28T06:21:31.715Z,1000.2347061559999
2022-09-28T06:22:31.691Z,1000.133114792
2022-09-28T06:23:31.692Z,1000.2347061559999
2022-09-28T06:24:31.694Z,1000.437888884
2022-09-28T06:25:31.728Z,1000.3362975199999
2022-09-28T06:26:31.674Z,1000.2347061559999
2022-09-28T06:27:31.869Z,1000.3362975199999
2022-09-28T06:28:31.796Z,1000.437888884
2022-09-28T06:29:31.726Z,1000.3362975199999
2022-09-28T06:30:31.822Z,1000.437888884
2022-09-28T06:31:31.689Z,1000.539480248
2022-09-28T06:32:31.869Z,1000.3362975199999
2022-09-28T06:33:31.668Z,1000.437888884
2022-09-28T06:34:31.860Z,1000.437888884
2022-09-28T06:35:31.714Z,1000.6072078239999
2022-09-28T06:36:31.726Z,1000.3362975199999
2022-09-28T06:37:31.674Z,1000.3362975199999
2022-09-28T06:38:31.718Z,1000.437888884
2022-09-28T06:39:31.804Z,1000.133114792
2022-09-28T06:40:32.002Z,1000.2347061559999
2022-09-28T06:41:31.653Z,1000.3362975199999
2022-09-28T06:42:31.684Z,1000.539480248
2022-09-28T06:43:34.361Z,1000.437888884
2022-09-28T06:44:31.687Z,1000.437888884
2022-09-28T06:45:31.789Z,1000.437888884
2022-09-28T06:46:31.745Z,1000.6072078239999
2022-09-28T06:47:31.733Z,1000.2347061559999
2022-09-28T06:48:31.688Z,1000.437888884
2022-09-28T06:49:31.763Z,1000.2347061559999
2022-09-28T06:50:31.705Z,1000.2347061559999
2022-09-28T06:51:31.698Z,1000.437888884
2022-09-28T06:52:31.687Z,1000.437888884
2022-09-28T06:53:31.700Z,1000.2347061559999
2022-09-28T06:54:31.746Z,1000.437888884
2022-09-28T06:55:31.687Z,1000.3362975199999
2022-09-28T06:56:33.099Z,1000.2347061559999
2022-09-28T06:57:31.674Z,1000.2347061559999
2022-09-28T06:58:31.738Z,1000.437888884
2022-09-28T06:59:31.694Z,1000.2347061559999
2022-09-28T07:00:31.692Z,1000.2347061559999
2022-09-28T07:01:31.744Z,1000.2347061559999
2022-09-28T07:02:31.807Z,1000.3362975199999
2022-09-28T07:03:31.665Z,1000.2347061559999
2022-09-28T07:04:31.699Z,1000.133114792
2022-09-28T07:05:31.703Z,1000.2347061559999
2022-09-28T07:06:31.707Z,1000.133114792
2022-09-28T07:07:31.673Z,1000.2347061559999
2022-09-28T07:08:31.878Z,1000.133114792
2022-09-28T07:09:33.442Z,1000.133114792
2022-09-28T07:10:31.699Z,1000.3362975199999
2022-09-28T07:11:31.733Z,1000.133114792
2022-09-28T07:12:31.679Z,1000.133114792
2022-09-28T07:13:47.376Z,1000.3362975199999
2022-09-28T07:14:46.543Z,1000.133114792
2022-09-28T07:15:31.691Z,1000.2347061559999
2022-09-28T07:16:48.519Z,1000.3362975199999
2022-09-28T07:17:32.247Z,1000.437888884
2022-09-28T07:18:31.748Z,1000.3362975199999
2022-09-28T07:19:31.866Z,1000.2347061559999
2022-09-28T07:20:32.353Z,1000.133114792
2022-09-28T07:21:31.680Z,1000.539480248
2022-09-28T07:22:42.488Z,1000.3362975199999
2022-09-28T07:23:32.817Z,1000.2347061559999
2022-09-28T07:24:31.887Z,1000.2347061559999
2022-09-28T07:25:31.703Z,1000.437888884
2022-09-28T07:26:31.711Z,1000.2347061559999
2022-09-28T07:27:31.688Z,1000.3362975199999
2022-09-28T07:28:31.854Z,1000.2347061559999
2022-09-28T07:29:31.706Z,1000.0315234279999
2022-09-28T07:30:31.801Z,1000.2347061559999
2022-09-28T07:31:31.643Z,1000.3362975199999
2022-09-28T07:33:31.658Z,1000.2347061559999
2022-09-28T07:34:31.711Z,1000.2347061559999
2022-09-28T07:35:31.667Z,1000.3362975199999
2022-09-28T07:36:31.645Z,1000.437888884
2022-09-28T07:37:31.680Z,1000.2347061559999
2022-09-28T07:38:31.695Z,1000.2347061559999
2022-09-28T07:39:31.740Z,1000.0315234279999
2022-09-28T07:40:31.739Z,1000.133114792
2022-09-28T07:41:31.682Z,1000.0315234279999
2022-09-28T07:42:31.740Z,1000.0315234279999
2022-09-28T07:43:31.674Z,1000.3362975199999
2022-09-28T07:44:31.808Z,1000.0315234279999
2022-09-28T07:45:31.747Z,1000.437888884
2022-09-28T07:46:31.780Z,1000.2347061559999
2022-09-28T07:47:35.098Z,1000.3362975199999
2022-09-28T07:48:31.696Z,1000.133114792
2022-09-28T07:49:31.658Z,999.8283407
2022-09-28T07:50:31.700Z,1000.0315234279999
2022-09-28T07:51:31.695Z,1000.2347061559999
2022-09-28T07:52:32.094Z,999.9299320639999
2022-09-28T07:53:31.668Z,1000.2347061559999
2022-09-28T07:54:31.706Z,1000.2347061559999
2022-09-28T07:55:31.680Z,1000.133114792
2022-09-28T07:56:31.676Z,1000.0315234279999
2022-09-28T07:57:31.682Z,1000.2347061559999
2022-09-28T07:58:31.713Z,1000.3362975199999
2022-09-28T07:59:31.683Z,1000.133114792
2022-09-28T08:00:34.111Z,1000.3362975199999
2022-09-28T08:01:31.852Z,1000.133114792
2022-09-28T08:02:31.739Z,1000.133114792
2022-09-28T08:03:31.736Z,1000.0315234279999
2022-09-28T08:04:31.738Z,1000.133114792
2022-09-28T08:05:31.651Z,1000.2347061559999
2022-09-28T08:06:31.678Z,1000.133114792
2022-09-28T08:07:31.692Z,1000.3362975199999
2022-09-28T08:08:31.699Z,1000.2347061559999
2022-09-28T08:09:31.665Z,1000.133114792
2022-09-28T08:10:31.729Z,1000.2347061559999
2022-09-28T08:11:31.699Z,1000.3362975199999
2022-09-28T08:12:31.721Z,1000.3362975199999
2022-09-28T08:13:31.683Z,1000.437888884
2022-09-28T08:14:31.709Z,1000.3362975199999
2022-09-28T08:15:31.673Z,1000.3362975199999
2022-09-28T08:16:31.800Z,1000.3362975199999
2022-09-28T08:17:31.654Z,1000.3362975199999
2022-09-28T08:18:31.738Z,1000.437888884
2022-09-28T08:19:31.698Z,1000.0315234279999
2022-09-28T08:20:31.676Z,1000.3362975199999
2022-09-28T08:21:31.681Z,1000.3362975199999
2022-09-28T08:22:31.698Z,1000.3362975199999
2022-09-28T08:23:31.737Z,1000.3362975199999
2022-09-28T08:24:31.673Z,1000.2347061559999
2022-09-28T08:25:31.663Z,1000.3362975199999
2022-09-28T08:26:31.716Z,1000.437888884
2022-09-28T08:27:31.686Z,1000.3362975199999
2022-09-28T08:28:31.693Z,1000.2347061559999
2022-09-28T08:29:31.671Z,1000.0315234279999
2022-09-28T08:30:31.804Z,1000.3362975199999
2022-09-28T08:31:31.701Z,1000.2347061559999
2022-09-28T08:32:31.703Z,1000.133114792
2022-09-28T08:33:31.692Z,1000.3362975199999
2022-09-28T08:34:31.664Z,1000.2347061559999
2022-09-28T08:35:31.672Z,1000.0315234279999
2022-09-28T08:36:31.717Z,1000.3362975199999
2022-09-28T08:37:31.718Z,1000.3362975199999
2022-09-28T08:38:31.682Z,1000.3362975199999
2022-09-28T08:39:31.690Z,1000.3362975199999
2022-09-28T08:40:31.808Z,1000.3362975199999
2022-09-28T08:41:31.671Z,1000.2347061559999
2022-09-28T08:42:31.673Z,1000.437888884
2022-09-28T08:43:31.653Z,1000.3362975199999
2022-09-28T08:44:31.702Z,1000.2347061559999
2022-09-28T08:45:31.725Z,1000.2347061559999
2022-09-28T08:46:31.748Z,1000.2347061559999
2022-09-28T08:47:31.690Z,1000.437888884
2022-09-28T08:48:31.694Z,1000.437888884
2022-09-28T08:49:31.787Z,1000.437888884
2022-09-28T08:50:31.693Z,1000.539480248
2022-09-28T08:51:31.663Z,1000.539480248
2022-09-28T08:52:31.802Z,1000.437888884
2022-09-28T08:53:31.680Z,1000.2347061559999
2022-09-28T08:54:31.687Z,1000.437888884
2022-09-28T08:55:31.747Z,1000.3362975199999
2022-09-28T08:56:31.668Z,1000.437888884
2022-09-28T08:57:31.707Z,1000.2347061559999
2022-09-28T08:58:31.693Z,1000.2347061559999
2022-09-28T08:59:31.689Z,1000.539480248
2022-09-28T09:00:31.711Z,1000.2347061559999
2022-09-28T09:01:31.743Z,1000.2347061559999
2022-09-28T09:02:31.805Z,1000.437888884
2022-09-28T09:03:31.652Z,1000.2347061559999
2022-09-28T09:04:31.777Z,1000.437888884
2022-09-28T09:05:31.672Z,1000.437888884
2022-09-28T09:06:31.691Z,1000.539480248
2022-09-28T09:07:31.675Z,1000.2347061559999
2022-09-28T09:08:31.703Z,1000.437888884
2022-09-28T09:09:31.658Z,1000.437888884
2022-09-28T09:10:31.707Z,1000.3362975199999
2022-09-28T09:11:31.649Z,1000.539480248
2022-09-28T09:12:31.666Z,1000.3362975199999
2022-09-28T09:13:31.675Z,1000.539480248
2022-09-28T09:14:31.687Z,1000.2347061559999
2022-09-28T09:15:31.676Z,1000.437888884
2022-09-28T09:16:31.724Z,1000.539480248
2022-09-28T09:17:31.706Z,1000.437888884
2022-09-28T09:18:31.757Z,1000.437888884
2022-09-28T09:19:31.652Z,1000.3362975199999
2022-09-28T09:20:31.689Z,1000.6072078239999
2022-09-28T09:21:31.753Z,1000.539480248
2022-09-28T09:22:31.680Z,1000.539480248
2022-09-28T09:23:31.668Z,1000.437888884
2022-09-28T09:24:31.669Z,1000.6072078239999
2022-09-28T09:25:35.375Z,1000.3362975199999
2022-09-28T09:26:31.688Z,1000.437888884
2022-09-28T09:27:31.664Z,1000.539480248
2022-09-28T09:28:31.701Z,1000.539480248
2022-09-28T09:29:31.683Z,1000.437888884
2022-09-28T09:30:31.981Z,1000.437888884